sensor_id;sensor_type;location;lat;lon;timestamp;P1;durP1;ratioP1;P2;durP2;ratioP2
7398;SDS011;3740;50.700;7.184;2023-07-09T00:02:13;7.53;;;5.95;;
7398;SDS011;3740;50.700;7.184;2023-07-09T00:04:39;6.85;;;6.15;;
7398;SDS011;3740;50.700;7.184;2023-07-09T00:07:08;6.93;;;5.97;;
7398;SDS011;3740;50.700;7.184;2023-07-09T00:09:57;6.65;;;5.95;;
7398;SDS011;3740;50.700;7.184;2023-07-09T00:12:24;6.93;;;6.22;;
7398;SDS011;3740;50.700;7.184;2023-07-09T00:14:50;7.32;;;6.07;;
7398;SDS011;3740;50.700;7.184;2023-07-09T00:17:18;6.68;;;5.65;;
7398;SDS011;3740;50.700;7.184;2023-07-09T00:19:53;8.77;;;6.65;;
7398;SDS011;3740;50.700;7.184;2023-07-09T00:22:19;7.03;;;6.03;;
7398;SDS011;3740;50.700;7.184;2023-07-09T00:24:49;8.73;;;6.38;;
7398;SDS011;3740;50.700;7.184;2023-07-09T00:27:19;7.28;;;6.55;;
7398;SDS011;3740;50.700;7.184;2023-07-09T00:29:47;7.30;;;6.15;;
7398;SDS011;3740;50.700;7.184;2023-07-09T00:32:13;6.65;;;5.90;;
7398;SDS011;3740;50.700;7.184;2023-07-09T00:34:41;6.57;;;5.95;;
7398;SDS011;3740;50.700;7.184;2023-07-09T00:37:11;7.50;;;6.22;;
7398;SDS011;3740;50.700;7.184;2023-07-09T00:39:38;6.65;;;5.95;;
7398;SDS011;3740;50.700;7.184;2023-07-09T00:42:05;6.75;;;6.10;;
7398;SDS011;3740;50.700;7.184;2023-07-09T00:44:36;6.97;;;6.15;;
7398;SDS011;3740;50.700;7.184;2023-07-09T00:49:43;6.82;;;6.13;;
7398;SDS011;3740;50.700;7.184;2023-07-09T00:55:13;6.82;;;6.05;;
7398;SDS011;3740;50.700;7.184;2023-07-09T00:57:42;7.05;;;6.35;;
7398;SDS011;3740;50.700;7.184;2023-07-09T01:00:20;7.20;;;6.50;;
7398;SDS011;3740;50.700;7.184;2023-07-09T01:02:47;7.95;;;6.43;;
7398;SDS011;3740;50.700;7.184;2023-07-09T01:05:13;7.88;;;6.45;;
7398;SDS011;3740;50.700;7.184;2023-07-09T01:07:42;7.85;;;6.55;;
7398;SDS011;3740;50.700;7.184;2023-07-09T01:10:11;7.38;;;6.45;;
7398;SDS011;3740;50.700;7.184;2023-07-09T01:12:40;7.20;;;6.50;;
7398;SDS011;3740;50.700;7.184;2023-07-09T01:15:05;6.85;;;6.13;;
7398;SDS011;3740;50.700;7.184;2023-07-09T01:17:32;7.13;;;6.43;;
7398;SDS011;3740;50.700;7.184;2023-07-09T01:19:58;7.40;;;6.70;;
7398;SDS011;3740;50.700;7.184;2023-07-09T01:22:24;6.50;;;5.95;;
7398;SDS011;3740;50.700;7.184;2023-07-09T01:24:52;7.22;;;6.63;;
7398;SDS011;3740;50.700;7.184;2023-07-09T01:27:25;6.43;;;5.75;;
7398;SDS011;3740;50.700;7.184;2023-07-09T01:29:54;7.63;;;6.88;;
7398;SDS011;3740;50.700;7.184;2023-07-09T01:32:21;7.70;;;6.55;;
7398;SDS011;3740;50.700;7.184;2023-07-09T01:34:48;7.00;;;6.35;;
7398;SDS011;3740;50.700;7.184;2023-07-09T01:37:16;7.03;;;6.28;;
7398;SDS011;3740;50.700;7.184;2023-07-09T01:39:44;6.75;;;6.05;;
7398;SDS011;3740;50.700;7.184;2023-07-09T01:42:10;6.35;;;5.75;;
7398;SDS011;3740;50.700;7.184;2023-07-09T01:44:36;6.63;;;6.03;;
7398;SDS011;3740;50.700;7.184;2023-07-09T01:47:03;7.53;;;6.25;;
7398;SDS011;3740;50.700;7.184;2023-07-09T01:49:30;7.50;;;6.35;;
7398;SDS011;3740;50.700;7.184;2023-07-09T01:51:57;6.82;;;6.13;;
7398;SDS011;3740;50.700;7.184;2023-07-09T01:54:25;7.15;;;6.30;;
7398;SDS011;3740;50.700;7.184;2023-07-09T01:56:52;7.18;;;6.45;;
7398;SDS011;3740;50.700;7.184;2023-07-09T01:59:22;7.25;;;6.50;;
7398;SDS011;3740;50.700;7.184;2023-07-09T02:01:47;7.78;;;6.15;;
7398;SDS011;3740;50.700;7.184;2023-07-09T02:04:13;7.05;;;6.45;;
7398;SDS011;3740;50.700;7.184;2023-07-09T02:06:38;7.35;;;6.45;;
7398;SDS011;3740;50.700;7.184;2023-07-09T02:09:04;6.82;;;6.18;;
7398;SDS011;3740;50.700;7.184;2023-07-09T02:11:29;6.47;;;5.97;;
7398;SDS011;3740;50.700;7.184;2023-07-09T02:13:55;7.53;;;6.28;;
7398;SDS011;3740;50.700;7.184;2023-07-09T02:16:20;6.68;;;6.07;;
7398;SDS011;3740;50.700;7.184;2023-07-09T02:18:46;8.30;;;6.50;;
7398;SDS011;3740;50.700;7.184;2023-07-09T02:21:11;6.47;;;5.88;;
7398;SDS011;3740;50.700;7.184;2023-07-09T02:23:37;6.93;;;6.22;;
7398;SDS011;3740;50.700;7.184;2023-07-09T02:26:02;7.22;;;6.53;;
7398;SDS011;3740;50.700;7.184;2023-07-09T02:28:28;7.00;;;6.40;;
7398;SDS011;3740;50.700;7.184;2023-07-09T02:30:53;7.30;;;6.57;;
7398;SDS011;3740;50.700;7.184;2023-07-09T02:33:19;7.03;;;6.32;;
7398;SDS011;3740;50.700;7.184;2023-07-09T02:35:45;7.30;;;6.70;;
7398;SDS011;3740;50.700;7.184;2023-07-09T02:38:11;6.80;;;6.20;;
7398;SDS011;3740;50.700;7.184;2023-07-09T02:40:36;7.05;;;6.20;;
7398;SDS011;3740;50.700;7.184;2023-07-09T02:43:02;6.45;;;5.95;;
7398;SDS011;3740;50.700;7.184;2023-07-09T02:45:27;7.95;;;6.43;;
7398;SDS011;3740;50.700;7.184;2023-07-09T02:47:53;6.85;;;6.15;;
7398;SDS011;3740;50.700;7.184;2023-07-09T02:50:18;7.30;;;6.00;;
7398;SDS011;3740;50.700;7.184;2023-07-09T02:52:44;6.78;;;6.18;;
7398;SDS011;3740;50.700;7.184;2023-07-09T02:55:09;6.90;;;6.20;;
7398;SDS011;3740;50.700;7.184;2023-07-09T02:57:35;6.68;;;5.97;;
7398;SDS011;3740;50.700;7.184;2023-07-09T03:00:01;7.03;;;6.32;;
7398;SDS011;3740;50.700;7.184;2023-07-09T03:02:27;7.13;;;6.05;;
7398;SDS011;3740;50.700;7.184;2023-07-09T03:04:53;7.03;;;6.00;;
7398;SDS011;3740;50.700;7.184;2023-07-09T03:07:18;6.68;;;6.07;;
7398;SDS011;3740;50.700;7.184;2023-07-09T03:09:44;6.57;;;5.97;;
7398;SDS011;3740;50.700;7.184;2023-07-09T03:12:10;6.68;;;6.07;;
7398;SDS011;3740;50.700;7.184;2023-07-09T03:14:36;6.82;;;6.22;;
7398;SDS011;3740;50.700;7.184;2023-07-09T03:17:01;6.30;;;5.70;;
7398;SDS011;3740;50.700;7.184;2023-07-09T03:19:27;7.22;;;6.40;;
7398;SDS011;3740;50.700;7.184;2023-07-09T03:21:53;7.80;;;6.22;;
7398;SDS011;3740;50.700;7.184;2023-07-09T03:24:18;8.00;;;6.40;;
7398;SDS011;3740;50.700;7.184;2023-07-09T03:26:45;8.00;;;6.28;;
7398;SDS011;3740;50.700;7.184;2023-07-09T03:29:11;7.05;;;6.45;;
7398;SDS011;3740;50.700;7.184;2023-07-09T03:31:37;7.05;;;6.45;;
7398;SDS011;3740;50.700;7.184;2023-07-09T03:34:02;7.25;;;6.55;;
7398;SDS011;3740;50.700;7.184;2023-07-09T03:36:28;7.20;;;6.50;;
7398;SDS011;3740;50.700;7.184;2023-07-09T03:38:54;7.63;;;6.43;;
7398;SDS011;3740;50.700;7.184;2023-07-09T03:41:20;6.43;;;5.82;;
7398;SDS011;3740;50.700;7.184;2023-07-09T03:43:45;6.78;;;6.15;;
7398;SDS011;3740;50.700;7.184;2023-07-09T03:46:11;7.32;;;6.60;;
7398;SDS011;3740;50.700;7.184;2023-07-09T03:48:37;7.35;;;5.70;;
7398;SDS011;3740;50.700;7.184;2023-07-09T03:51:03;6.35;;;5.72;;
7398;SDS011;3740;50.700;7.184;2023-07-09T03:53:28;6.90;;;6.20;;
7398;SDS011;3740;50.700;7.184;2023-07-09T03:55:54;6.22;;;5.63;;
7398;SDS011;3740;50.700;7.184;2023-07-09T03:58:21;6.95;;;6.30;;
7398;SDS011;3740;50.700;7.184;2023-07-09T04:00:47;6.45;;;5.82;;
7398;SDS011;3740;50.700;7.184;2023-07-09T04:03:13;6.38;;;5.78;;
7398;SDS011;3740;50.700;7.184;2023-07-09T04:05:38;7.53;;;6.15;;
7398;SDS011;3740;50.700;7.184;2023-07-09T04:08:04;6.03;;;5.53;;
7398;SDS011;3740;50.700;7.184;2023-07-09T04:10:30;6.82;;;5.68;;
7398;SDS011;3740;50.700;7.184;2023-07-09T04:12:56;7.68;;;6.10;;
7398;SDS011;3740;50.700;7.184;2023-07-09T04:15:21;6.70;;;6.03;;
7398;SDS011;3740;50.700;7.184;2023-07-09T04:17:47;6.50;;;5.90;;
7398;SDS011;3740;50.700;7.184;2023-07-09T04:20:12;6.53;;;5.90;;
7398;SDS011;3740;50.700;7.184;2023-07-09T04:22:39;6.90;;;6.03;;
7398;SDS011;3740;50.700;7.184;2023-07-09T04:25:06;6.50;;;5.90;;
7398;SDS011;3740;50.700;7.184;2023-07-09T04:27:34;7.25;;;5.80;;
7398;SDS011;3740;50.700;7.184;2023-07-09T04:30:01;6.45;;;5.85;;
7398;SDS011;3740;50.700;7.184;2023-07-09T04:32:27;7.10;;;6.50;;
7398;SDS011;3740;50.700;7.184;2023-07-09T04:34:53;6.80;;;6.13;;
7398;SDS011;3740;50.700;7.184;2023-07-09T04:37:18;6.57;;;6.07;;
7398;SDS011;3740;50.700;7.184;2023-07-09T04:39:44;5.95;;;5.35;;
7398;SDS011;3740;50.700;7.184;2023-07-09T04:42:14;9.27;;;6.28;;
7398;SDS011;3740;50.700;7.184;2023-07-09T04:44:41;7.68;;;6.22;;
7398;SDS011;3740;50.700;7.184;2023-07-09T04:47:08;6.72;;;6.13;;
7398;SDS011;3740;50.700;7.184;2023-07-09T04:49:34;6.65;;;5.95;;
7398;SDS011;3740;50.700;7.184;2023-07-09T04:51:59;6.38;;;5.78;;
7398;SDS011;3740;50.700;7.184;2023-07-09T04:54:25;6.55;;;5.70;;
7398;SDS011;3740;50.700;7.184;2023-07-09T04:56:52;6.78;;;6.07;;
7398;SDS011;3740;50.700;7.184;2023-07-09T04:59:18;6.18;;;5.63;;
7398;SDS011;3740;50.700;7.184;2023-07-09T05:01:43;5.90;;;5.30;;
7398;SDS011;3740;50.700;7.184;2023-07-09T05:04:09;5.78;;;5.22;;
7398;SDS011;3740;50.700;7.184;2023-07-09T05:06:35;6.00;;;5.40;;
7398;SDS011;3740;50.700;7.184;2023-07-09T05:09:00;6.95;;;5.82;;
7398;SDS011;3740;50.700;7.184;2023-07-09T05:11:26;7.13;;;6.10;;
7398;SDS011;3740;50.700;7.184;2023-07-09T05:13:52;8.77;;;6.00;;
7398;SDS011;3740;50.700;7.184;2023-07-09T05:16:17;6.57;;;6.07;;
7398;SDS011;3740;50.700;7.184;2023-07-09T05:18:44;7.82;;;6.90;;
7398;SDS011;3740;50.700;7.184;2023-07-09T05:21:10;6.75;;;6.15;;
7398;SDS011;3740;50.700;7.184;2023-07-09T05:23:36;7.45;;;6.65;;
7398;SDS011;3740;50.700;7.184;2023-07-09T05:26:02;6.57;;;5.97;;
7398;SDS011;3740;50.700;7.184;2023-07-09T05:28:28;7.00;;;6.35;;
7398;SDS011;3740;50.700;7.184;2023-07-09T05:30:55;7.55;;;6.72;;
7398;SDS011;3740;50.700;7.184;2023-07-09T05:33:20;6.90;;;6.20;;
7398;SDS011;3740;50.700;7.184;2023-07-09T05:35:46;6.75;;;6.15;;
7398;SDS011;3740;50.700;7.184;2023-07-09T05:38:13;7.10;;;6.40;;
7398;SDS011;3740;50.700;7.184;2023-07-09T05:40:39;7.88;;;7.07;;
7398;SDS011;3740;50.700;7.184;2023-07-09T05:43:06;7.32;;;6.63;;
7398;SDS011;3740;50.700;7.184;2023-07-09T05:45:31;7.32;;;6.63;;
7398;SDS011;3740;50.700;7.184;2023-07-09T05:47:58;7.05;;;6.45;;
7398;SDS011;3740;50.700;7.184;2023-07-09T05:50:24;7.20;;;6.50;;
7398;SDS011;3740;50.700;7.184;2023-07-09T05:52:51;7.68;;;6.57;;
7398;SDS011;3740;50.700;7.184;2023-07-09T05:55:16;7.03;;;6.43;;
7398;SDS011;3740;50.700;7.184;2023-07-09T05:57:42;7.97;;;7.18;;
7398;SDS011;3740;50.700;7.184;2023-07-09T06:00:08;7.07;;;6.40;;
7398;SDS011;3740;50.700;7.184;2023-07-09T06:02:34;7.55;;;6.75;;
7398;SDS011;3740;50.700;7.184;2023-07-09T06:05:00;7.50;;;6.70;;
7398;SDS011;3740;50.700;7.184;2023-07-09T06:07:26;6.88;;;6.20;;
7398;SDS011;3740;50.700;7.184;2023-07-09T06:09:52;7.35;;;6.60;;
7398;SDS011;3740;50.700;7.184;2023-07-09T06:12:18;7.32;;;6.43;;
7398;SDS011;3740;50.700;7.184;2023-07-09T06:14:44;7.60;;;6.80;;
7398;SDS011;3740;50.700;7.184;2023-07-09T06:17:11;6.78;;;6.18;;
7398;SDS011;3740;50.700;7.184;2023-07-09T06:19:37;7.22;;;6.50;;
7398;SDS011;3740;50.700;7.184;2023-07-09T06:22:03;7.13;;;6.43;;
7398;SDS011;3740;50.700;7.184;2023-07-09T06:24:29;6.57;;;5.97;;
7398;SDS011;3740;50.700;7.184;2023-07-09T06:26:54;6.90;;;6.22;;
7398;SDS011;3740;50.700;7.184;2023-07-09T06:29:20;6.20;;;5.65;;
7398;SDS011;3740;50.700;7.184;2023-07-09T06:31:45;7.35;;;6.47;;
7398;SDS011;3740;50.700;7.184;2023-07-09T06:34:11;6.93;;;6.22;;
7398;SDS011;3740;50.700;7.184;2023-07-09T06:36:37;7.10;;;6.28;;
7398;SDS011;3740;50.700;7.184;2023-07-09T06:39:03;6.50;;;5.90;;
7398;SDS011;3740;50.700;7.184;2023-07-09T06:41:29;6.78;;;6.15;;
7398;SDS011;3740;50.700;7.184;2023-07-09T06:43:54;7.40;;;6.70;;
7398;SDS011;3740;50.700;7.184;2023-07-09T06:46:20;7.00;;;6.28;;
7398;SDS011;3740;50.700;7.184;2023-07-09T06:48:46;8.02;;;6.38;;
7398;SDS011;3740;50.700;7.184;2023-07-09T06:51:12;7.38;;;5.78;;
7398;SDS011;3740;50.700;7.184;2023-07-09T06:53:37;7.18;;;5.97;;
7398;SDS011;3740;50.700;7.184;2023-07-09T06:56:04;6.05;;;5.50;;
7398;SDS011;3740;50.700;7.184;2023-07-09T06:58:31;6.57;;;6.00;;
7398;SDS011;3740;50.700;7.184;2023-07-09T07:00:59;7.00;;;6.30;;
7398;SDS011;3740;50.700;7.184;2023-07-09T07:03:28;7.70;;;6.32;;
7398;SDS011;3740;50.700;7.184;2023-07-09T07:05:54;8.20;;;6.35;;
7398;SDS011;3740;50.700;7.184;2023-07-09T07:08:20;6.88;;;6.00;;
7398;SDS011;3740;50.700;7.184;2023-07-09T07:10:48;6.57;;;5.82;;
7398;SDS011;3740;50.700;7.184;2023-07-09T07:13:14;6.50;;;5.82;;
7398;SDS011;3740;50.700;7.184;2023-07-09T07:15:39;6.70;;;6.03;;
7398;SDS011;3740;50.700;7.184;2023-07-09T07:18:05;6.72;;;5.75;;
7398;SDS011;3740;50.700;7.184;2023-07-09T07:20:32;6.80;;;5.97;;
7398;SDS011;3740;50.700;7.184;2023-07-09T07:22:58;6.53;;;5.80;;
7398;SDS011;3740;50.700;7.184;2023-07-09T07:25:24;6.82;;;6.18;;
7398;SDS011;3740;50.700;7.184;2023-07-09T07:27:50;6.40;;;5.80;;
7398;SDS011;3740;50.700;7.184;2023-07-09T07:30:15;6.47;;;5.70;;
7398;SDS011;3740;50.700;7.184;2023-07-09T07:32:43;6.93;;;5.70;;
7398;SDS011;3740;50.700;7.184;2023-07-09T07:35:09;6.50;;;5.90;;
7398;SDS011;3740;50.700;7.184;2023-07-09T07:37:35;6.78;;;5.63;;
7398;SDS011;3740;50.700;7.184;2023-07-09T07:40:01;6.30;;;5.80;;
7398;SDS011;3740;50.700;7.184;2023-07-09T07:42:29;7.13;;;5.88;;
7398;SDS011;3740;50.700;7.184;2023-07-09T07:44:55;6.13;;;5.47;;
7398;SDS011;3740;50.700;7.184;2023-07-09T07:47:20;6.18;;;5.60;;
7398;SDS011;3740;50.700;7.184;2023-07-09T07:49:46;5.68;;;5.15;;
7398;SDS011;3740;50.700;7.184;2023-07-09T07:52:12;7.30;;;5.97;;
7398;SDS011;3740;50.700;7.184;2023-07-09T07:54:38;6.00;;;5.50;;
7398;SDS011;3740;50.700;7.184;2023-07-09T07:57:03;6.05;;;5.53;;
7398;SDS011;3740;50.700;7.184;2023-07-09T07:59:29;7.13;;;5.38;;
7398;SDS011;3740;50.700;7.184;2023-07-09T08:01:57;5.57;;;5.03;;
7398;SDS011;3740;50.700;7.184;2023-07-09T08:04:23;5.95;;;5.38;;
7398;SDS011;3740;50.700;7.184;2023-07-09T08:06:49;6.18;;;5.57;;
7398;SDS011;3740;50.700;7.184;2023-07-09T08:09:15;7.18;;;5.50;;
7398;SDS011;3740;50.700;7.184;2023-07-09T08:11:41;6.85;;;5.78;;
7398;SDS011;3740;50.700;7.184;2023-07-09T08:14:06;5.65;;;5.15;;
7398;SDS011;3740;50.700;7.184;2023-07-09T08:16:32;6.47;;;5.47;;
7398;SDS011;3740;50.700;7.184;2023-07-09T08:18:58;7.00;;;5.55;;
7398;SDS011;3740;50.700;7.184;2023-07-09T08:21:23;6.25;;;5.57;;
7398;SDS011;3740;50.700;7.184;2023-07-09T08:23:49;6.00;;;5.40;;
7398;SDS011;3740;50.700;7.184;2023-07-09T08:26:14;6.43;;;5.47;;
7398;SDS011;3740;50.700;7.184;2023-07-09T08:28:40;5.57;;;4.97;;
7398;SDS011;3740;50.700;7.184;2023-07-09T08:31:05;5.93;;;5.00;;
7398;SDS011;3740;50.700;7.184;2023-07-09T08:33:31;5.72;;;4.95;;
7398;SDS011;3740;50.700;7.184;2023-07-09T08:35:56;5.57;;;5.07;;
7398;SDS011;3740;50.700;7.184;2023-07-09T08:38:22;6.10;;;5.03;;
7398;SDS011;3740;50.700;7.184;2023-07-09T08:41:07;6.53;;;5.25;;
7398;SDS011;3740;50.700;7.184;2023-07-09T08:43:41;7.00;;;5.22;;
7398;SDS011;3740;50.700;7.184;2023-07-09T08:46:24;6.25;;;4.80;;
7398;SDS011;3740;50.700;7.184;2023-07-09T08:49:00;5.72;;;5.13;;
7398;SDS011;3740;50.700;7.184;2023-07-09T08:51:38;6.03;;;5.43;;
7398;SDS011;3740;50.700;7.184;2023-07-09T08:54:11;5.60;;;5.10;;
7398;SDS011;3740;50.700;7.184;2023-07-09T08:56:42;6.05;;;5.53;;
7398;SDS011;3740;50.700;7.184;2023-07-09T08:59:09;6.15;;;5.43;;
7398;SDS011;3740;50.700;7.184;2023-07-09T09:01:47;8.05;;;5.30;;
7398;SDS011;3740;50.700;7.184;2023-07-09T09:04:20;5.65;;;4.85;;
7398;SDS011;3740;50.700;7.184;2023-07-09T09:06:51;6.45;;;5.35;;
7398;SDS011;3740;50.700;7.184;2023-07-09T09:09:40;5.82;;;5.30;;
7398;SDS011;3740;50.700;7.184;2023-07-09T09:12:15;6.55;;;5.43;;
7398;SDS011;3740;50.700;7.184;2023-07-09T09:14:49;6.70;;;5.18;;
7398;SDS011;3740;50.700;7.184;2023-07-09T09:17:23;5.88;;;5.28;;
7398;SDS011;3740;50.700;7.184;2023-07-09T09:19:55;5.53;;;4.60;;
7398;SDS011;3740;50.700;7.184;2023-07-09T09:22:29;4.80;;;4.40;;
7398;SDS011;3740;50.700;7.184;2023-07-09T09:27:40;6.50;;;5.32;;
7398;SDS011;3740;50.700;7.184;2023-07-09T09:30:11;5.90;;;5.25;;
7398;SDS011;3740;50.700;7.184;2023-07-09T09:32:44;5.75;;;5.15;;
7398;SDS011;3740;50.700;7.184;2023-07-09T09:35:25;5.40;;;4.90;;
7398;SDS011;3740;50.700;7.184;2023-07-09T09:37:53;5.45;;;4.95;;
7398;SDS011;3740;50.700;7.184;2023-07-09T09:40:21;9.05;;;5.07;;
7398;SDS011;3740;50.700;7.184;2023-07-09T09:42:48;5.40;;;4.68;;
7398;SDS011;3740;50.700;7.184;2023-07-09T09:45:16;5.30;;;4.80;;
7398;SDS011;3740;50.700;7.184;2023-07-09T09:47:44;5.88;;;5.30;;
7398;SDS011;3740;50.700;7.184;2023-07-09T09:50:18;5.15;;;4.65;;
7398;SDS011;3740;50.700;7.184;2023-07-09T09:52:45;5.38;;;4.68;;
7398;SDS011;3740;50.700;7.184;2023-07-09T09:55:20;6.13;;;5.18;;
7398;SDS011;3740;50.700;7.184;2023-07-09T09:57:49;5.18;;;4.70;;
7398;SDS011;3740;50.700;7.184;2023-07-09T10:00:18;5.80;;;4.80;;
7398;SDS011;3740;50.700;7.184;2023-07-09T10:02:47;5.28;;;4.88;;
7398;SDS011;3740;50.700;7.184;2023-07-09T10:05:16;5.65;;;4.93;;
7398;SDS011;3740;50.700;7.184;2023-07-09T10:07:56;5.60;;;4.53;;
7398;SDS011;3740;50.700;7.184;2023-07-09T10:10:37;5.45;;;4.75;;
7398;SDS011;3740;50.700;7.184;2023-07-09T10:21:28;5.20;;;4.70;;
7398;SDS011;3740;50.700;7.184;2023-07-09T10:26:47;5.43;;;4.68;;
7398;SDS011;3740;50.700;7.184;2023-07-09T10:35:06;6.18;;;5.22;;
7398;SDS011;3740;50.700;7.184;2023-07-09T10:38:02;5.10;;;4.57;;
7398;SDS011;3740;50.700;7.184;2023-07-09T10:40:46;4.78;;;4.25;;
7398;SDS011;3740;50.700;7.184;2023-07-09T10:43:20;5.53;;;4.45;;
7398;SDS011;3740;50.700;7.184;2023-07-09T10:45:54;5.85;;;4.50;;
7398;SDS011;3740;50.700;7.184;2023-07-09T10:48:32;6.50;;;4.88;;
7398;SDS011;3740;50.700;7.184;2023-07-09T10:51:02;5.95;;;4.90;;
7398;SDS011;3740;50.700;7.184;2023-07-09T10:53:44;5.45;;;4.50;;
7398;SDS011;3740;50.700;7.184;2023-07-09T10:56:20;4.55;;;4.10;;
7398;SDS011;3740;50.700;7.184;2023-07-09T10:59:04;5.85;;;5.00;;
7398;SDS011;3740;50.700;7.184;2023-07-09T11:04:48;5.13;;;4.60;;
7398;SDS011;3740;50.700;7.184;2023-07-09T11:07:20;4.75;;;4.22;;
7398;SDS011;3740;50.700;7.184;2023-07-09T11:09:51;4.65;;;4.22;;
7398;SDS011;3740;50.700;7.184;2023-07-09T11:12:29;4.88;;;4.45;;
7398;SDS011;3740;50.700;7.184;2023-07-09T11:15:10;6.07;;;4.20;;
7398;SDS011;3740;50.700;7.184;2023-07-09T11:17:42;4.97;;;4.30;;
7398;SDS011;3740;50.700;7.184;2023-07-09T11:20:18;4.15;;;3.75;;
7398;SDS011;3740;50.700;7.184;2023-07-09T11:23:06;4.82;;;4.32;;
7398;SDS011;3740;50.700;7.184;2023-07-09T11:25:43;4.60;;;4.13;;
7398;SDS011;3740;50.700;7.184;2023-07-09T11:28:10;6.05;;;4.35;;
7398;SDS011;3740;50.700;7.184;2023-07-09T11:30:46;4.60;;;4.20;;
7398;SDS011;3740;50.700;7.184;2023-07-09T11:33:25;4.90;;;4.07;;
7398;SDS011;3740;50.700;7.184;2023-07-09T11:35:53;4.07;;;3.67;;
7398;SDS011;3740;50.700;7.184;2023-07-09T11:38:38;4.55;;;4.15;;
7398;SDS011;3740;50.700;7.184;2023-07-09T11:44:10;4.60;;;4.03;;
7398;SDS011;3740;50.700;7.184;2023-07-09T11:46:57;4.28;;;3.95;;
7398;SDS011;3740;50.700;7.184;2023-07-09T11:49:54;4.22;;;3.92;;
7398;SDS011;3740;50.700;7.184;2023-07-09T11:52:34;4.25;;;3.90;;
7398;SDS011;3740;50.700;7.184;2023-07-09T11:58:04;4.20;;;3.80;;
7398;SDS011;3740;50.700;7.184;2023-07-09T12:00:33;5.20;;;4.25;;
7398;SDS011;3740;50.700;7.184;2023-07-09T12:03:06;4.50;;;4.10;;
7398;SDS011;3740;50.700;7.184;2023-07-09T12:05:36;5.35;;;4.15;;
7398;SDS011;3740;50.700;7.184;2023-07-09T12:08:02;5.13;;;4.30;;
7398;SDS011;3740;50.700;7.184;2023-07-09T12:10:32;5.60;;;4.70;;
7398;SDS011;3740;50.700;7.184;2023-07-09T12:12:59;5.05;;;4.28;;
7398;SDS011;3740;50.700;7.184;2023-07-09T12:15:28;4.38;;;3.97;;
7398;SDS011;3740;50.700;7.184;2023-07-09T12:17:58;5.07;;;4.57;;
7398;SDS011;3740;50.700;7.184;2023-07-09T12:20:30;4.50;;;4.10;;
7398;SDS011;3740;50.700;7.184;2023-07-09T12:22:59;5.32;;;4.50;;
7398;SDS011;3740;50.700;7.184;2023-07-09T12:25:25;5.45;;;4.40;;
7398;SDS011;3740;50.700;7.184;2023-07-09T12:27:54;4.80;;;4.30;;
7398;SDS011;3740;50.700;7.184;2023-07-09T12:30:19;5.32;;;4.53;;
7398;SDS011;3740;50.700;7.184;2023-07-09T12:32:46;4.80;;;4.20;;
7398;SDS011;3740;50.700;7.184;2023-07-09T12:35:15;4.47;;;4.15;;
7398;SDS011;3740;50.700;7.184;2023-07-09T12:37:41;4.25;;;3.95;;
7398;SDS011;3740;50.700;7.184;2023-07-09T12:40:30;4.75;;;4.22;;
7398;SDS011;3740;50.700;7.184;2023-07-09T12:42:56;7.68;;;4.88;;
7398;SDS011;3740;50.700;7.184;2023-07-09T12:45:22;5.03;;;4.18;;
7398;SDS011;3740;50.700;7.184;2023-07-09T12:47:48;4.40;;;4.10;;
7398;SDS011;3740;50.700;7.184;2023-07-09T12:50:34;4.43;;;4.03;;
7398;SDS011;3740;50.700;7.184;2023-07-09T12:53:15;4.30;;;3.90;;
7398;SDS011;3740;50.700;7.184;2023-07-09T12:55:42;4.93;;;4.40;;
7398;SDS011;3740;50.700;7.184;2023-07-09T12:58:18;5.10;;;4.15;;
7398;SDS011;3740;50.700;7.184;2023-07-09T13:00:49;7.38;;;4.40;;
7398;SDS011;3740;50.700;7.184;2023-07-09T13:03:17;4.95;;;4.18;;
7398;SDS011;3740;50.700;7.184;2023-07-09T13:08:24;5.20;;;4.70;;
7398;SDS011;3740;50.700;7.184;2023-07-09T13:10:51;5.45;;;4.32;;
7398;SDS011;3740;50.700;7.184;2023-07-09T13:13:19;4.40;;;4.00;;
7398;SDS011;3740;50.700;7.184;2023-07-09T13:16:19;5.10;;;4.50;;
7398;SDS011;3740;50.700;7.184;2023-07-09T13:18:38;5.13;;;4.57;;
7398;SDS011;3740;50.700;7.184;2023-07-09T13:21:05;4.35;;;3.95;;
7398;SDS011;3740;50.700;7.184;2023-07-09T13:23:41;5.18;;;4.20;;
7398;SDS011;3740;50.700;7.184;2023-07-09T13:26:08;5.72;;;4.30;;
7398;SDS011;3740;50.700;7.184;2023-07-09T13:28:33;4.70;;;4.10;;
7398;SDS011;3740;50.700;7.184;2023-07-09T13:31:00;4.47;;;3.90;;
7398;SDS011;3740;50.700;7.184;2023-07-09T13:33:34;4.85;;;4.43;;
7398;SDS011;3740;50.700;7.184;2023-07-09T13:36:01;5.53;;;4.85;;
7398;SDS011;3740;50.700;7.184;2023-07-09T13:38:28;5.28;;;4.78;;
7398;SDS011;3740;50.700;7.184;2023-07-09T13:40:55;5.15;;;4.00;;
7398;SDS011;3740;50.700;7.184;2023-07-09T13:43:41;5.30;;;4.50;;
7398;SDS011;3740;50.700;7.184;2023-07-09T13:46:08;5.38;;;4.40;;
7398;SDS011;3740;50.700;7.184;2023-07-09T13:48:35;5.40;;;4.07;;
7398;SDS011;3740;50.700;7.184;2023-07-09T13:51:10;6.28;;;4.70;;
7398;SDS011;3740;50.700;7.184;2023-07-09T13:53:44;5.25;;;4.75;;
7398;SDS011;3740;50.700;7.184;2023-07-09T13:56:10;5.40;;;4.43;;
7398;SDS011;3740;50.700;7.184;2023-07-09T13:58:36;6.10;;;5.00;;
7398;SDS011;3740;50.700;7.184;2023-07-09T14:01:08;7.28;;;5.25;;
7398;SDS011;3740;50.700;7.184;2023-07-09T14:03:37;6.50;;;5.00;;
7398;SDS011;3740;50.700;7.184;2023-07-09T14:06:03;8.15;;;5.50;;
7398;SDS011;3740;50.700;7.184;2023-07-09T14:08:29;6.18;;;5.57;;
7398;SDS011;3740;50.700;7.184;2023-07-09T14:10:55;5.38;;;4.53;;
7398;SDS011;3740;50.700;7.184;2023-07-09T14:13:21;5.00;;;4.50;;
7398;SDS011;3740;50.700;7.184;2023-07-09T14:15:49;4.93;;;4.53;;
7398;SDS011;3740;50.700;7.184;2023-07-09T14:18:16;6.95;;;4.40;;
7398;SDS011;3740;50.700;7.184;2023-07-09T14:20:43;7.75;;;5.13;;
7398;SDS011;3740;50.700;7.184;2023-07-09T14:23:13;5.70;;;4.30;;
7398;SDS011;3740;50.700;7.184;2023-07-09T14:25:40;7.70;;;5.00;;
7398;SDS011;3740;50.700;7.184;2023-07-09T14:28:12;6.57;;;4.80;;
7398;SDS011;3740;50.700;7.184;2023-07-09T14:30:40;5.25;;;4.78;;
7398;SDS011;3740;50.700;7.184;2023-07-09T14:33:12;6.47;;;4.88;;
7398;SDS011;3740;50.700;7.184;2023-07-09T14:35:47;5.28;;;4.78;;
7398;SDS011;3740;50.700;7.184;2023-07-09T14:38:24;6.03;;;5.43;;
7398;SDS011;3740;50.700;7.184;2023-07-09T14:40:52;6.15;;;5.10;;
7398;SDS011;3740;50.700;7.184;2023-07-09T14:43:20;6.53;;;5.45;;
7398;SDS011;3740;50.700;7.184;2023-07-09T14:45:46;8.23;;;5.53;;
7398;SDS011;3740;50.700;7.184;2023-07-09T14:48:17;11.23;;;5.10;;
7398;SDS011;3740;50.700;7.184;2023-07-09T14:50:45;15.90;;;5.90;;
7398;SDS011;3740;50.700;7.184;2023-07-09T14:53:29;8.00;;;5.03;;
7398;SDS011;3740;50.700;7.184;2023-07-09T14:55:54;7.85;;;5.53;;
7398;SDS011;3740;50.700;7.184;2023-07-09T14:58:21;6.18;;;4.47;;
7398;SDS011;3740;50.700;7.184;2023-07-09T15:00:48;8.15;;;5.28;;
7398;SDS011;3740;50.700;7.184;2023-07-09T15:03:18;6.15;;;5.35;;
7398;SDS011;3740;50.700;7.184;2023-07-09T15:05:49;8.75;;;5.50;;
7398;SDS011;3740;50.700;7.184;2023-07-09T15:08:16;8.80;;;5.43;;
7398;SDS011;3740;50.700;7.184;2023-07-09T15:10:43;8.73;;;5.65;;
7398;SDS011;3740;50.700;7.184;2023-07-09T15:13:14;9.40;;;6.18;;
7398;SDS011;3740;50.700;7.184;2023-07-09T15:15:40;12.52;;;7.53;;
7398;SDS011;3740;50.700;7.184;2023-07-09T15:18:10;16.90;;;9.55;;
7398;SDS011;3740;50.700;7.184;2023-07-09T15:20:37;16.73;;;9.18;;
7398;SDS011;3740;50.700;7.184;2023-07-09T15:23:04;13.73;;;10.32;;
7398;SDS011;3740;50.700;7.184;2023-07-09T15:25:30;12.88;;;9.75;;
7398;SDS011;3740;50.700;7.184;2023-07-09T15:27:56;11.10;;;9.57;;
7398;SDS011;3740;50.700;7.184;2023-07-09T15:30:23;13.55;;;10.23;;
7398;SDS011;3740;50.700;7.184;2023-07-09T15:32:50;12.82;;;11.63;;
7398;SDS011;3740;50.700;7.184;2023-07-09T15:35:16;11.70;;;10.20;;
7398;SDS011;3740;50.700;7.184;2023-07-09T15:37:43;12.43;;;11.27;;
7398;SDS011;3740;50.700;7.184;2023-07-09T15:40:20;13.18;;;11.88;;
7398;SDS011;3740;50.700;7.184;2023-07-09T15:42:54;10.60;;;9.60;;
7398;SDS011;3740;50.700;7.184;2023-07-09T15:45:22;12.30;;;11.10;;
7398;SDS011;3740;50.700;7.184;2023-07-09T15:47:49;10.70;;;9.80;;
7398;SDS011;3740;50.700;7.184;2023-07-09T15:50:22;10.88;;;9.77;;
7398;SDS011;3740;50.700;7.184;2023-07-09T15:52:51;10.95;;;9.73;;
7398;SDS011;3740;50.700;7.184;2023-07-09T15:55:18;9.43;;;8.63;;
7398;SDS011;3740;50.700;7.184;2023-07-09T15:57:46;9.95;;;8.98;;
7398;SDS011;3740;50.700;7.184;2023-07-09T16:00:17;10.52;;;9.63;;
7398;SDS011;3740;50.700;7.184;2023-07-09T16:02:45;9.38;;;8.48;;